sensor_id;sensor_type;location;lat;lon;timestamp;temperature;humidity
48936;DHT22;34745;52.276;10.528;2022-07-06T00:01:17;17.60;1.00
48936;DHT22;34745;52.276;10.528;2022-07-06T00:03:44;17.60;1.00
48936;DHT22;34745;52.276;10.528;2022-07-06T00:06:16;17.60;1.00
48936;DHT22;34745;52.276;10.528;2022-07-06T00:08:44;17.60;1.00
48936;DHT22;34745;52.276;10.528;2022-07-06T00:11:11;17.60;1.00
48936;DHT22;34745;52.276;10.528;2022-07-06T00:13:39;17.70;1.00
48936;DHT22;34745;52.276;10.528;2022-07-06T00:16:06;17.70;1.00
48936;DHT22;34745;52.276;10.528;2022-07-06T00:18:33;17.60;1.00
48936;DHT22;34745;52.276;10.528;2022-07-06T00:21:00;17.60;1.00
48936;DHT22;34745;52.276;10.528;2022-07-06T00:23:27;17.50;1.00
48936;DHT22;34745;52.276;10.528;2022-07-06T00:25:54;17.50;1.00
48936;DHT22;34745;52.276;10.528;2022-07-06T00:28:21;17.50;1.00
48936;DHT22;34745;52.276;10.528;2022-07-06T00:30:51;17.40;1.00
48936;DHT22;34745;52.276;10.528;2022-07-06T00:33:20;17.40;1.00
48936;DHT22;34745;52.276;10.528;2022-07-06T00:35:47;17.30;1.00
48936;DHT22;34745;52.276;10.528;2022-07-06T00:38:14;17.20;1.00
48936;DHT22;34745;52.276;10.528;2022-07-06T00:40:41;17.30;1.00
48936;DHT22;34745;52.276;10.528;2022-07-06T00:43:08;17.20;1.00
48936;DHT22;34745;52.276;10.528;2022-07-06T00:45:35;17.30;1.00
48936;DHT22;34745;52.276;10.528;2022-07-06T00:48:04;17.20;1.00
48936;DHT22;34745;52.276;10.528;2022-07-06T00:50:31;17.20;1.00
48936;DHT22;34745;52.276;10.528;2022-07-06T00:53:01;17.20;1.00
48936;DHT22;34745;52.276;10.528;2022-07-06T00:55:31;17.20;1.00
48936;DHT22;34745;52.276;10.528;2022-07-06T00:57:59;17.20;1.00
48936;DHT22;34745;52.276;10.528;2022-07-06T01:00:28;17.20;1.00
48936;DHT22;34745;52.276;10.528;2022-07-06T01:02:55;17.20;1.00
48936;DHT22;34745;52.276;10.528;2022-07-06T01:05:24;17.30;1.00
48936;DHT22;34745;52.276;10.528;2022-07-06T01:07:52;17.30;1.00
48936;DHT22;34745;52.276;10.528;2022-07-06T01:10:21;17.30;1.00
48936;DHT22;34745;52.276;10.528;2022-07-06T01:12:49;17.30;1.00
48936;DHT22;34745;52.276;10.528;2022-07-06T01:15:18;17.20;1.00
48936;DHT22;34745;52.276;10.528;2022-07-06T01:17:45;17.20;1.00
48936;DHT22;34745;52.276;10.528;2022-07-06T01:20:14;17.10;1.00
48936;DHT22;34745;52.276;10.528;2022-07-06T01:22:44;17.10;1.00
48936;DHT22;34745;52.276;10.528;2022-07-06T01:25:11;17.10;1.00
48936;DHT22;34745;52.276;10.528;2022-07-06T01:27:39;17.10;1.00
48936;DHT22;34745;52.276;10.528;2022-07-06T01:30:09;17.10;1.00
48936;DHT22;34745;52.276;10.528;2022-07-06T01:32:37;17.00;1.00
48936;DHT22;34745;52.276;10.528;2022-07-06T01:35:06;16.90;1.00
48936;DHT22;34745;52.276;10.528;2022-07-06T01:37:36;16.90;1.00
48936;DHT22;34745;52.276;10.528;2022-07-06T01:40:05;16.90;1.00
48936;DHT22;34745;52.276;10.528;2022-07-06T01:42:33;16.90;1.00
48936;DHT22;34745;52.276;10.528;2022-07-06T01:45:01;16.80;1.00
48936;DHT22;34745;52.276;10.528;2022-07-06T01:47:28;16.80;1.00
48936;DHT22;34745;52.276;10.528;2022-07-06T01:49:58;16.80;1.00
48936;DHT22;34745;52.276;10.528;2022-07-06T01:52:26;16.70;1.00
48936;DHT22;34745;52.276;10.528;2022-07-06T01:54:55;16.70;1.00
48936;DHT22;34745;52.276;10.528;2022-07-06T01:57:23;16.70;1.00
48936;DHT22;34745;52.276;10.528;2022-07-06T01:59:49;16.60;1.00
48936;DHT22;34745;52.276;10.528;2022-07-06T02:02:17;16.60;1.00
48936;DHT22;34745;52.276;10.528;2022-07-06T02:04:45;16.60;1.00
48936;DHT22;34745;52.276;10.528;2022-07-06T02:07:12;16.60;1.00
48936;DHT22;34745;52.276;10.528;2022-07-06T02:09:39;16.60;1.00
48936;DHT22;34745;52.276;10.528;2022-07-06T02:12:07;16.60;1.00
48936;DHT22;34745;52.276;10.528;2022-07-06T02:14:34;16.60;1.00
48936;DHT22;34745;52.276;10.528;2022-07-06T02:17:02;16.50;1.00
48936;DHT22;34745;52.276;10.528;2022-07-06T02:19:29;16.50;1.00
48936;DHT22;34745;52.276;10.528;2022-07-06T02:21:56;16.60;1.00
48936;DHT22;34745;52.276;10.528;2022-07-06T02:24:23;16.50;1.00
48936;DHT22;34745;52.276;10.528;2022-07-06T02:26:50;16.50;1.00
48936;DHT22;34745;52.276;10.528;2022-07-06T02:29:18;16.50;1.00
48936;DHT22;34745;52.276;10.528;2022-07-06T02:31:46;16.40;1.00
48936;DHT22;34745;52.276;10.528;2022-07-06T02:34:13;16.40;1.00
48936;DHT22;34745;52.276;10.528;2022-07-06T02:36:41;16.40;1.00
48936;DHT22;34745;52.276;10.528;2022-07-06T02:39:08;16.30;1.00
48936;DHT22;34745;52.276;10.528;2022-07-06T02:41:36;16.40;1.00
48936;DHT22;34745;52.276;10.528;2022-07-06T02:44:03;16.30;1.00
48936;DHT22;34745;52.276;10.528;2022-07-06T02:46:31;16.30;1.00
48936;DHT22;34745;52.276;10.528;2022-07-06T02:48:58;16.40;1.00
48936;DHT22;34745;52.276;10.528;2022-07-06T02:51:26;16.40;1.00
48936;DHT22;34745;52.276;10.528;2022-07-06T02:53:52;16.40;1.00
48936;DHT22;34745;52.276;10.528;2022-07-06T02:56:20;16.30;1.00
48936;DHT22;34745;52.276;10.528;2022-07-06T02:58:46;16.30;1.00
48936;DHT22;34745;52.276;10.528;2022-07-06T03:01:14;16.40;1.00
48936;DHT22;34745;52.276;10.528;2022-07-06T03:03:42;16.40;1.00
48936;DHT22;34745;52.276;10.528;2022-07-06T03:06:09;16.40;1.00
48936;DHT22;34745;52.276;10.528;2022-07-06T03:08:36;16.30;1.00
48936;DHT22;34745;52.276;10.528;2022-07-06T03:11:03;16.30;1.00
48936;DHT22;34745;52.276;10.528;2022-07-06T03:13:30;16.30;1.00
48936;DHT22;34745;52.276;10.528;2022-07-06T03:15:58;16.20;1.00
48936;DHT22;34745;52.276;10.528;2022-07-06T03:18:24;16.10;1.00
48936;DHT22;34745;52.276;10.528;2022-07-06T03:20:54;16.00;1.00
48936;DHT22;34745;52.276;10.528;2022-07-06T03:23:20;16.10;1.00
48936;DHT22;34745;52.276;10.528;2022-07-06T03:25:48;16.00;1.00
48936;DHT22;34745;52.276;10.528;2022-07-06T03:28:14;15.90;1.00
48936;DHT22;34745;52.276;10.528;2022-07-06T03:30:42;15.90;1.00
48936;DHT22;34745;52.276;10.528;2022-07-06T03:33:08;16.00;1.00
48936;DHT22;34745;52.276;10.528;2022-07-06T03:35:35;16.00;1.00
48936;DHT22;34745;52.276;10.528;2022-07-06T03:38:03;16.00;1.00
48936;DHT22;34745;52.276;10.528;2022-07-06T03:40:31;16.10;1.00
48936;DHT22;34745;52.276;10.528;2022-07-06T03:42:57;16.10;1.00
48936;DHT22;34745;52.276;10.528;2022-07-06T03:45:25;16.20;1.00
48936;DHT22;34745;52.276;10.528;2022-07-06T03:47:52;16.20;1.00
48936;DHT22;34745;52.276;10.528;2022-07-06T03:50:19;16.30;1.00
48936;DHT22;34745;52.276;10.528;2022-07-06T03:52:46;16.20;1.00
48936;DHT22;34745;52.276;10.528;2022-07-06T03:55:14;16.20;1.00
48936;DHT22;34745;52.276;10.528;2022-07-06T03:57:41;16.20;1.00
48936;DHT22;34745;52.276;10.528;2022-07-06T04:00:09;16.20;1.00
48936;DHT22;34745;52.276;10.528;2022-07-06T04:02:36;16.10;1.00
48936;DHT22;34745;52.276;10.528;2022-07-06T04:05:04;16.10;1.00
48936;DHT22;34745;52.276;10.528;2022-07-06T04:07:31;16.20;1.00
48936;DHT22;34745;52.276;10.528;2022-07-06T04:09:58;16.10;1.00
48936;DHT22;34745;52.276;10.528;2022-07-06T04:12:27;16.20;1.00
48936;DHT22;34745;52.276;10.528;2022-07-06T04:14:56;16.10;1.00
48936;DHT22;34745;52.276;10.528;2022-07-06T04:17:23;16.20;1.00
48936;DHT22;34745;52.276;10.528;2022-07-06T04:20:09;16.20;1.00
48936;DHT22;34745;52.276;10.528;2022-07-06T04:22:37;16.20;1.00
48936;DHT22;34745;52.276;10.528;2022-07-06T04:25:05;16.20;1.00
48936;DHT22;34745;52.276;10.528;2022-07-06T04:27:33;16.10;1.00
48936;DHT22;34745;52.276;10.528;2022-07-06T04:30:01;16.00;1.00
48936;DHT22;34745;52.276;10.528;2022-07-06T04:32:28;16.00;1.00
48936;DHT22;34745;52.276;10.528;2022-07-06T04:34:54;16.10;1.00
48936;DHT22;34745;52.276;10.528;2022-07-06T04:37:21;16.10;1.00
48936;DHT22;34745;52.276;10.528;2022-07-06T04:39:48;16.00;1.00
48936;DHT22;34745;52.276;10.528;2022-07-06T04:42:15;16.10;1.00
48936;DHT22;34745;52.276;10.528;2022-07-06T04:44:44;15.90;1.00
48936;DHT22;34745;52.276;10.528;2022-07-06T04:47:12;16.00;1.00
48936;DHT22;34745;52.276;10.528;2022-07-06T04:49:39;15.90;1.00
48936;DHT22;34745;52.276;10.528;2022-07-06T04:52:07;15.90;1.00
48936;DHT22;34745;52.276;10.528;2022-07-06T04:54:35;16.00;1.00
48936;DHT22;34745;52.276;10.528;2022-07-06T04:57:03;15.90;1.00
48936;DHT22;34745;52.276;10.528;2022-07-06T04:59:37;16.00;1.00
48936;DHT22;34745;52.276;10.528;2022-07-06T05:02:06;16.10;1.00
48936;DHT22;34745;52.276;10.528;2022-07-06T05:04:33;16.10;1.00
48936;DHT22;34745;52.276;10.528;2022-07-06T05:07:00;16.10;1.00
48936;DHT22;34745;52.276;10.528;2022-07-06T05:09:27;16.20;1.00
48936;DHT22;34745;52.276;10.528;2022-07-06T05:11:54;16.20;1.00
48936;DHT22;34745;52.276;10.528;2022-07-06T05:14:21;16.20;1.00
48936;DHT22;34745;52.276;10.528;2022-07-06T05:16:48;16.20;1.00
48936;DHT22;34745;52.276;10.528;2022-07-06T05:19:17;16.20;1.00
48936;DHT22;34745;52.276;10.528;2022-07-06T05:21:44;16.30;1.00
48936;DHT22;34745;52.276;10.528;2022-07-06T05:24:11;16.40;1.00
48936;DHT22;34745;52.276;10.528;2022-07-06T05:26:38;16.30;1.00
48936;DHT22;34745;52.276;10.528;2022-07-06T05:29:05;16.30;1.00
48936;DHT22;34745;52.276;10.528;2022-07-06T05:31:32;16.40;1.00
48936;DHT22;34745;52.276;10.528;2022-07-06T05:33:59;16.50;1.00
48936;DHT22;34745;52.276;10.528;2022-07-06T05:36:27;16.50;1.00
48936;DHT22;34745;52.276;10.528;2022-07-06T05:38:54;16.70;1.00
48936;DHT22;34745;52.276;10.528;2022-07-06T05:41:21;16.60;1.00
48936;DHT22;34745;52.276;10.528;2022-07-06T05:43:55;16.50;1.00
48936;DHT22;34745;52.276;10.528;2022-07-06T05:46:22;16.60;1.00
48936;DHT22;34745;52.276;10.528;2022-07-06T05:48:49;16.70;1.00
48936;DHT22;34745;52.276;10.528;2022-07-06T05:51:35;16.80;1.00
48936;DHT22;34745;52.276;10.528;2022-07-06T05:54:03;16.90;1.00
48936;DHT22;34745;52.276;10.528;2022-07-06T05:56:29;16.80;1.00
48936;DHT22;34745;52.276;10.528;2022-07-06T05:58:57;16.70;1.00
48936;DHT22;34745;52.276;10.528;2022-07-06T06:01:24;16.70;1.00
48936;DHT22;34745;52.276;10.528;2022-07-06T06:03:51;16.60;1.00
48936;DHT22;34745;52.276;10.528;2022-07-06T06:06:18;16.60;1.00
48936;DHT22;34745;52.276;10.528;2022-07-06T06:08:47;16.60;1.00
48936;DHT22;34745;52.276;10.528;2022-07-06T06:11:13;16.50;1.00
48936;DHT22;34745;52.276;10.528;2022-07-06T06:13:41;16.60;1.00
48936;DHT22;34745;52.276;10.528;2022-07-06T06:16:07;16.60;1.00
48936;DHT22;34745;52.276;10.528;2022-07-06T06:18:34;16.60;1.00
48936;DHT22;34745;52.276;10.528;2022-07-06T06:21:08;16.50;1.00
48936;DHT22;34745;52.276;10.528;2022-07-06T06:23:35;16.70;1.00
48936;DHT22;34745;52.276;10.528;2022-07-06T06:26:04;16.70;1.00
48936;DHT22;34745;52.276;10.528;2022-07-06T06:28:31;16.80;1.00
48936;DHT22;34745;52.276;10.528;2022-07-06T06:30:58;17.00;1.00
48936;DHT22;34745;52.276;10.528;2022-07-06T06:33:25;17.10;1.00
48936;DHT22;34745;52.276;10.528;2022-07-06T06:35:52;17.10;1.00
48936;DHT22;34745;52.276;10.528;2022-07-06T06:38:22;17.10;1.00
48936;DHT22;34745;52.276;10.528;2022-07-06T06:40:53;16.90;1.00
48936;DHT22;34745;52.276;10.528;2022-07-06T06:43:22;16.80;1.00
48936;DHT22;34745;52.276;10.528;2022-07-06T06:45:49;17.00;1.00
48936;DHT22;34745;52.276;10.528;2022-07-06T06:48:16;17.10;1.00
48936;DHT22;34745;52.276;10.528;2022-07-06T06:50:44;17.20;1.00
48936;DHT22;34745;52.276;10.528;2022-07-06T06:53:11;17.10;1.00
48936;DHT22;34745;52.276;10.528;2022-07-06T06:55:38;17.00;1.00
48936;DHT22;34745;52.276;10.528;2022-07-06T06:58:05;17.10;1.00
48936;DHT22;34745;52.276;10.528;2022-07-06T07:00:33;17.10;1.00
48936;DHT22;34745;52.276;10.528;2022-07-06T07:03:00;17.30;1.00
48936;DHT22;34745;52.276;10.528;2022-07-06T07:05:27;17.40;1.00
48936;DHT22;34745;52.276;10.528;2022-07-06T07:07:54;17.50;1.00
48936;DHT22;34745;52.276;10.528;2022-07-06T07:10:30;17.50;1.00
48936;DHT22;34745;52.276;10.528;2022-07-06T07:12:57;17.50;1.00
48936;DHT22;34745;52.276;10.528;2022-07-06T07:15:24;17.40;1.00
48936;DHT22;34745;52.276;10.528;2022-07-06T07:17:52;17.30;1.00
48936;DHT22;34745;52.276;10.528;2022-07-06T07:20:19;17.40;1.00
48936;DHT22;34745;52.276;10.528;2022-07-06T07:22:46;17.50;1.00
48936;DHT22;34745;52.276;10.528;2022-07-06T07:25:13;17.50;1.00
48936;DHT22;34745;52.276;10.528;2022-07-06T07:27:40;17.50;1.00
48936;DHT22;34745;52.276;10.528;2022-07-06T07:30:08;17.50;1.00
48936;DHT22;34745;52.276;10.528;2022-07-06T07:32:35;17.50;1.00
48936;DHT22;34745;52.276;10.528;2022-07-06T07:35:04;17.50;1.00
48936;DHT22;34745;52.276;10.528;2022-07-06T07:37:31;17.50;1.00
48936;DHT22;34745;52.276;10.528;2022-07-06T07:39:58;17.50;1.00
48936;DHT22;34745;52.276;10.528;2022-07-06T07:42:25;17.40;1.00
48936;DHT22;34745;52.276;10.528;2022-07-06T07:44:52;17.40;1.00
48936;DHT22;34745;52.276;10.528;2022-07-06T07:47:19;17.40;1.00
48936;DHT22;34745;52.276;10.528;2022-07-06T07:49:46;17.40;1.00
48936;DHT22;34745;52.276;10.528;2022-07-06T07:52:15;17.30;1.00
48936;DHT22;34745;52.276;10.528;2022-07-06T07:54:42;17.50;1.00
48936;DHT22;34745;52.276;10.528;2022-07-06T07:57:16;17.60;1.00
48936;DHT22;34745;52.276;10.528;2022-07-06T07:59:43;17.60;1.00
48936;DHT22;34745;52.276;10.528;2022-07-06T08:02:10;17.60;1.00
48936;DHT22;34745;52.276;10.528;2022-07-06T08:04:37;17.70;1.00
48936;DHT22;34745;52.276;10.528;2022-07-06T08:07:05;17.70;1.00
48936;DHT22;34745;52.276;10.528;2022-07-06T08:09:34;17.70;1.00
48936;DHT22;34745;52.276;10.528;2022-07-06T08:12:01;17.70;1.00
48936;DHT22;34745;52.276;10.528;2022-07-06T08:14:28;17.80;1.00
48936;DHT22;34745;52.276;10.528;2022-07-06T08:16:55;17.80;1.00
48936;DHT22;34745;52.276;10.528;2022-07-06T08:19:22;17.90;1.00
48936;DHT22;34745;52.276;10.528;2022-07-06T08:21:49;17.90;1.00
48936;DHT22;34745;52.276;10.528;2022-07-06T08:24:15;17.90;1.00
48936;DHT22;34745;52.276;10.528;2022-07-06T08:26:44;17.80;1.00
48936;DHT22;34745;52.276;10.528;2022-07-06T08:29:11;17.80;1.00
48936;DHT22;34745;52.276;10.528;2022-07-06T08:31:38;17.80;1.00
48936;DHT22;34745;52.276;10.528;2022-07-06T08:34:23;17.90;1.00
48936;DHT22;34745;52.276;10.528;2022-07-06T08:36:53;18.10;1.00
48936;DHT22;34745;52.276;10.528;2022-07-06T08:39:20;18.00;1.00
48936;DHT22;34745;52.276;10.528;2022-07-06T08:41:49;18.00;1.00
48936;DHT22;34745;52.276;10.528;2022-07-06T08:44:17;18.10;1.00
48936;DHT22;34745;52.276;10.528;2022-07-06T08:46:45;17.70;1.00
48936;DHT22;34745;52.276;10.528;2022-07-06T08:49:15;17.70;1.00
48936;DHT22;34745;52.276;10.528;2022-07-06T08:51:42;17.80;1.00
48936;DHT22;34745;52.276;10.528;2022-07-06T08:54:11;17.80;1.00
48936;DHT22;34745;52.276;10.528;2022-07-06T08:56:39;17.70;1.00
48936;DHT22;34745;52.276;10.528;2022-07-06T08:59:15;17.70;1.00
48936;DHT22;34745;52.276;10.528;2022-07-06T09:01:42;17.70;1.00
48936;DHT22;34745;52.276;10.528;2022-07-06T09:04:12;17.70;1.00
48936;DHT22;34745;52.276;10.528;2022-07-06T09:06:42;17.70;1.00
48936;DHT22;34745;52.276;10.528;2022-07-06T09:09:09;17.90;1.00
48936;DHT22;34745;52.276;10.528;2022-07-06T09:11:37;18.10;1.00
48936;DHT22;34745;52.276;10.528;2022-07-06T09:14:05;18.10;1.00
48936;DHT22;34745;52.276;10.528;2022-07-06T09:16:33;18.10;1.00
48936;DHT22;34745;52.276;10.528;2022-07-06T09:19:06;18.20;1.00
48936;DHT22;34745;52.276;10.528;2022-07-06T09:21:36;18.20;1.00
48936;DHT22;34745;52.276;10.528;2022-07-06T09:24:07;18.20;1.00
48936;DHT22;34745;52.276;10.528;2022-07-06T09:26:35;18.20;1.00
48936;DHT22;34745;52.276;10.528;2022-07-06T09:29:02;18.40;1.00
48936;DHT22;34745;52.276;10.528;2022-07-06T09:31:29;18.40;1.00
48936;DHT22;34745;52.276;10.528;2022-07-06T09:33:58;18.40;1.00
48936;DHT22;34745;52.276;10.528;2022-07-06T09:36:41;18.40;1.00
48936;DHT22;34745;52.276;10.528;2022-07-06T09:39:19;18.40;1.00
48936;DHT22;34745;52.276;10.528;2022-07-06T09:41:47;18.40;1.00
48936;DHT22;34745;52.276;10.528;2022-07-06T09:44:20;18.50;1.00
48936;DHT22;34745;52.276;10.528;2022-07-06T09:46:47;18.50;1.00
48936;DHT22;34745;52.276;10.528;2022-07-06T09:49:18;18.40;1.00
48936;DHT22;34745;52.276;10.528;2022-07-06T09:51:46;18.40;1.00
48936;DHT22;34745;52.276;10.528;2022-07-06T09:54:14;18.60;1.00
48936;DHT22;34745;52.276;10.528;2022-07-06T09:56:43;18.70;99.90
48936;DHT22;34745;52.276;10.528;2022-07-06T09:59:10;18.70;99.90
48936;DHT22;34745;52.276;10.528;2022-07-06T10:01:39;18.80;99.90
48936;DHT22;34745;52.276;10.528;2022-07-06T10:04:07;18.70;99.90
48936;DHT22;34745;52.276;10.528;2022-07-06T10:06:36;18.60;99.90
48936;DHT22;34745;52.276;10.528;2022-07-06T10:09:06;18.70;99.90
48936;DHT22;34745;52.276;10.528;2022-07-06T10:11:40;18.70;99.90
48936;DHT22;34745;52.276;10.528;2022-07-06T10:14:08;19.00;99.90
48936;DHT22;34745;52.276;10.528;2022-07-06T10:16:36;19.00;99.90
48936;DHT22;34745;52.276;10.528;2022-07-06T10:19:07;19.00;99.90
48936;DHT22;34745;52.276;10.528;2022-07-06T10:21:38;18.90;99.90
48936;DHT22;34745;52.276;10.528;2022-07-06T10:24:07;18.60;99.90
48936;DHT22;34745;52.276;10.528;2022-07-06T10:26:35;18.60;99.90
48936;DHT22;34745;52.276;10.528;2022-07-06T10:29:03;18.70;99.90
48936;DHT22;34745;52.276;10.528;2022-07-06T10:31:32;18.70;99.90
48936;DHT22;34745;52.276;10.528;2022-07-06T10:34:01;18.90;99.90
48936;DHT22;34745;52.276;10.528;2022-07-06T10:36:28;19.10;99.90
48936;DHT22;34745;52.276;10.528;2022-07-06T10:38:57;19.30;99.90
48936;DHT22;34745;52.276;10.528;2022-07-06T10:41:30;19.20;99.90
48936;DHT22;34745;52.276;10.528;2022-07-06T10:44:14;19.30;99.90
48936;DHT22;34745;52.276;10.528;2022-07-06T10:46:50;19.00;99.90
48936;DHT22;34745;52.276;10.528;2022-07-06T10:49:17;19.10;99.90
48936;DHT22;34745;52.276;10.528;2022-07-06T10:52:05;19.00;99.90
48936;DHT22;34745;52.276;10.528;2022-07-06T10:54:39;19.20;99.90
48936;DHT22;34745;52.276;10.528;2022-07-06T10:57:09;19.30;99.90
48936;DHT22;34745;52.276;10.528;2022-07-06T10:59:37;19.40;99.90
48936;DHT22;34745;52.276;10.528;2022-07-06T11:02:14;19.60;99.90
48936;DHT22;34745;52.276;10.528;2022-07-06T11:04:42;19.60;99.90
48936;DHT22;34745;52.276;10.528;2022-07-06T11:07:12;19.60;99.90
48936;DHT22;34745;52.276;10.528;2022-07-06T11:09:41;19.40;99.90
48936;DHT22;34745;52.276;10.528;2022-07-06T11:12:17;19.10;99.90
48936;DHT22;34745;52.276;10.528;2022-07-06T11:14:46;19.00;99.90
48936;DHT22;34745;52.276;10.528;2022-07-06T11:17:16;19.00;99.90
48936;DHT22;34745;52.276;10.528;2022-07-06T11:19:50;19.00;99.90
48936;DHT22;34745;52.276;10.528;2022-07-06T11:22:18;19.00;99.90
48936;DHT22;34745;52.276;10.528;2022-07-06T11:24:47;19.00;99.90
48936;DHT22;34745;52.276;10.528;2022-07-06T11:27:14;18.90;99.90
48936;DHT22;34745;52.276;10.528;2022-07-06T11:29:41;18.90;99.90
48936;DHT22;34745;52.276;10.528;2022-07-06T11:32:09;18.80;99.90
48936;DHT22;34745;52.276;10.528;2022-07-06T11:34:39;18.70;99.90
48936;DHT22;34745;52.276;10.528;2022-07-06T11:37:08;18.70;99.90
48936;DHT22;34745;52.276;10.528;2022-07-06T11:39:36;18.60;99.90
48936;DHT22;34745;52.276;10.528;2022-07-06T11:42:05;18.60;99.90
48936;DHT22;34745;52.276;10.528;2022-07-06T11:44:33;18.50;99.90
48936;DHT22;34745;52.276;10.528;2022-07-06T11:47:00;18.50;99.90
48936;DHT22;34745;52.276;10.528;2022-07-06T11:49:29;18.50;99.90
48936;DHT22;34745;52.276;10.528;2022-07-06T11:51:57;18.50;99.90
48936;DHT22;34745;52.276;10.528;2022-07-06T11:54:25;18.30;99.90
48936;DHT22;34745;52.276;10.528;2022-07-06T11:56:54;18.40;99.90
48936;DHT22;34745;52.276;10.528;2022-07-06T11:59:25;18.50;99.90
48936;DHT22;34745;52.276;10.528;2022-07-06T12:01:58;18.60;99.90
48936;DHT22;34745;52.276;10.528;2022-07-06T12:04:26;18.70;99.90
48936;DHT22;34745;52.276;10.528;2022-07-06T12:06:53;18.70;99.90
48936;DHT22;34745;52.276;10.528;2022-07-06T12:09:21;18.80;99.90
48936;DHT22;34745;52.276;10.528;2022-07-06T12:11:48;18.90;99.90
48936;DHT22;34745;52.276;10.528;2022-07-06T12:14:17;19.00;99.90
48936;DHT22;34745;52.276;10.528;2022-07-06T12:16:47;19.00;99.90
48936;DHT22;34745;52.276;10.528;2022-07-06T12:19:15;18.90;99.90
48936;DHT22;34745;52.276;10.528;2022-07-06T12:21:44;18.80;99.90
48936;DHT22;34745;52.276;10.528;2022-07-06T12:24:18;18.60;99.90
48936;DHT22;34745;52.276;10.528;2022-07-06T12:26:45;18.60;99.90
48936;DHT22;34745;52.276;10.528;2022-07-06T12:29:13;18.50;99.90
48936;DHT22;34745;52.276;10.528;2022-07-06T12:31:41;18.50;99.90
48936;DHT22;34745;52.276;10.528;2022-07-06T12:34:15;18.60;99.90
48936;DHT22;34745;52.276;10.528;2022-07-06T12:36:43;18.60;99.90
48936;DHT22;34745;52.276;10.528;2022-07-06T12:39:11;18.50;99.90
48936;DHT22;34745;52.276;10.528;2022-07-06T12:41:45;18.40;99.90
48936;DHT22;34745;52.276;10.528;2022-07-06T12:44:13;18.50;99.90
48936;DHT22;34745;52.276;10.528;2022-07-06T12:46:41;18.40;99.90
48936;DHT22;34745;52.276;10.528;2022-07-06T12:49:18;18.50;99.90
48936;DHT22;34745;52.276;10.528;2022-07-06T12:51:54;18.50;99.90
48936;DHT22;34745;52.276;10.528;2022-07-06T12:54:22;18.60;99.90
48936;DHT22;34745;52.276;10.528;2022-07-06T12:56:57;18.80;99.90
48936;DHT22;34745;52.276;10.528;2022-07-06T12:59:24;18.90;99.90
48936;DHT22;34745;52.276;10.528;2022-07-06T13:01:52;19.10;99.90
48936;DHT22;34745;52.276;10.528;2022-07-06T13:04:25;19.20;99.90
48936;DHT22;34745;52.276;10.528;2022-07-06T13:06:52;19.30;99.90
48936;DHT22;34745;52.276;10.528;2022-07-06T13:09:20;19.40;99.90
48936;DHT22;34745;52.276;10.528;2022-07-06T13:11:48;19.50;99.90
48936;DHT22;34745;52.276;10.528;2022-07-06T13:14:16;19.50;99.90
48936;DHT22;34745;52.276;10.528;2022-07-06T13:16:43;19.50;99.90
48936;DHT22;34745;52.276;10.528;2022-07-06T13:19:11;19.50;99.90
48936;DHT22;34745;52.276;10.528;2022-07-06T13:21:40;19.50;99.90
48936;DHT22;34745;52.276;10.528;2022-07-06T13:24:07;19.40;99.90
48936;DHT22;34745;52.276;10.528;2022-07-06T13:26:34;19.40;99.90
48936;DHT22;34745;52.276;10.528;2022-07-06T13:29:02;19.50;99.90
48936;DHT22;34745;52.276;10.528;2022-07-06T13:31:30;19.60;99.90
48936;DHT22;34745;52.276;10.528;2022-07-06T13:33:57;19.60;99.90
48936;DHT22;34745;52.276;10.528;2022-07-06T13:36:24;19.40;99.90
48936;DHT22;34745;52.276;10.528;2022-07-06T13:38:53;19.50;99.90
48936;DHT22;34745;52.276;10.528;2022-07-06T13:41:20;19.40;99.90
48936;DHT22;34745;52.276;10.528;2022-07-06T13:43:47;19.50;99.90
48936;DHT22;34745;52.276;10.528;2022-07-06T13:46:14;19.70;99.90
48936;DHT22;34745;52.276;10.528;2022-07-06T13:48:42;20.00;99.90
48936;DHT22;34745;52.276;10.528;2022-07-06T13:51:09;20.10;99.90
48936;DHT22;34745;52.276;10.528;2022-07-06T13:53:37;20.50;99.90
48936;DHT22;34745;52.276;10.528;2022-07-06T13:56:06;20.60;99.90
48936;DHT22;34745;52.276;10.528;2022-07-06T13:58:34;20.80;99.90
48936;DHT22;34745;52.276;10.528;2022-07-06T14:01:02;21.00;99.90
48936;DHT22;34745;52.276;10.528;2022-07-06T14:03:29;21.00;99.90
48936;DHT22;34745;52.276;10.528;2022-07-06T14:05:57;20.90;99.90
48936;DHT22;34745;52.276;10.528;2022-07-06T14:08:24;20.70;99.90
48936;DHT22;34745;52.276;10.528;2022-07-06T14:10:53;20.60;99.90
48936;DHT22;34745;52.276;10.528;2022-07-06T14:13:21;20.50;99.90
48936;DHT22;34745;52.276;10.528;2022-07-06T14:15:49;21.00;99.90
48936;DHT22;34745;52.276;10.528;2022-07-06T14:18:16;21.20;99.90
48936;DHT22;34745;52.276;10.528;2022-07-06T14:20:47;21.20;99.90
48936;DHT22;34745;52.276;10.528;2022-07-06T14:23:15;21.20;99.90
48936;DHT22;34745;52.276;10.528;2022-07-06T14:25:43;21.20;99.90
48936;DHT22;34745;52.276;10.528;2022-07-06T14:28:11;21.20;99.90
48936;DHT22;34745;52.276;10.528;2022-07-06T14:30:44;21.30;99.90
48936;DHT22;34745;52.276;10.528;2022-07-06T14:33:13;21.40;99.90
48936;DHT22;34745;52.276;10.528;2022-07-06T14:35:43;21.80;99.90
48936;DHT22;34745;52.276;10.528;2022-07-06T14:38:10;21.80;99.90
48936;DHT22;34745;52.276;10.528;2022-07-06T14:40:38;21.90;99.90
48936;DHT22;34745;52.276;10.528;2022-07-06T14:43:06;21.60;99.90
48936;DHT22;34745;52.276;10.528;2022-07-06T14:45:33;21.40;99.90
48936;DHT22;34745;52.276;10.528;2022-07-06T14:48:02;21.10;99.90
48936;DHT22;34745;52.276;10.528;2022-07-06T14:50:29;21.00;99.90
48936;DHT22;34745;52.276;10.528;2022-07-06T14:52:57;21.20;99.90
48936;DHT22;34745;52.276;10.528;2022-07-06T14:55:24;22.10;99.90
48936;DHT22;34745;52.276;10.528;2022-07-06T14:57:51;22.30;99.90
48936;DHT22;34745;52.276;10.528;2022-07-06T15:00:18;22.30;99.90
48936;DHT22;34745;52.276;10.528;2022-07-06T15:02:45;22.10;99.90
48936;DHT22;34745;52.276;10.528;2022-07-06T15:05:14;22.00;99.90
48936;DHT22;34745;52.276;10.528;2022-07-06T15:07:41;22.10;99.90
48936;DHT22;34745;52.276;10.528;2022-07-06T15:10:09;22.50;99.90
48936;DHT22;34745;52.276;10.528;2022-07-06T15:12:36;23.00;99.90
48936;DHT22;34745;52.276;10.528;2022-07-06T15:15:04;23.40;99.90
48936;DHT22;34745;52.276;10.528;2022-07-06T15:17:31;23.40;99.90
48936;DHT22;34745;52.276;10.528;2022-07-06T15:19:59;22.80;99.90
48936;DHT22;34745;52.276;10.528;2022-07-06T15:22:27;22.90;99.90
48936;DHT22;34745;52.276;10.528;2022-07-06T15:24:55;23.20;99.90
48936;DHT22;34745;52.276;10.528;2022-07-06T15:27:23;22.90;99.90
48936;DHT22;34745;52.276;10.528;2022-07-06T15:29:50;22.60;99.90
48936;DHT22;34745;52.276;10.528;2022-07-06T15:32:17;22.20;99.90